sensor_id;sensor_type;location;lat;lon;timestamp;temperature;humidity
66831;DHT22;53739;44.224;22.528;2023-04-24T04:48:49;307.90;2304.00
66831;DHT22;53739;44.224;22.528;2023-04-24T04:51:15;308.00;2304.00
66831;DHT22;53739;44.224;22.528;2023-04-24T04:54:13;308.00;2304.00
66831;DHT22;53739;44.224;22.528;2023-04-24T05:00:35;332.90;2329.60
66831;DHT22;53739;44.224;22.528;2023-04-24T05:10:01;333.10;2329.60
66831;DHT22;53739;44.224;22.528;2023-04-24T05:32:12;333.00;2329.60
66831;DHT22;53739;44.224;22.528;2023-04-24T05:34:55;332.80;2329.60
66831;DHT22;53739;44.224;22.528;2023-04-24T05:37:35;332.80;2329.60
66831;DHT22;53739;44.224;22.528;2023-04-24T05:46:53;333.00;2329.60
66831;DHT22;53739;44.224;22.528;2023-04-24T05:49:33;333.00;2329.60
66831;DHT22;53739;44.224;22.528;2023-04-24T05:51:59;333.20;2329.60
66831;DHT22;53739;44.224;22.528;2023-04-24T05:54:39;333.20;2329.60
66831;DHT22;53739;44.224;22.528;2023-04-24T05:57:05;333.30;2329.60
66831;DHT22;53739;44.224;22.528;2023-04-24T05:59:39;333.30;2329.60
66831;DHT22;53739;44.224;22.528;2023-04-24T06:02:06;333.30;2329.60
66831;DHT22;53739;44.224;22.528;2023-04-24T06:04:32;333.30;2329.60
66831;DHT22;53739;44.224;22.528;2023-04-24T06:06:58;333.40;2329.60
66831;DHT22;53739;44.224;22.528;2023-04-24T06:09:25;333.70;2329.60
66831;DHT22;53739;44.224;22.528;2023-04-24T06:11:51;358.50;2329.60
66831;DHT22;53739;44.224;22.528;2023-04-24T06:14:33;358.80;2329.60
66831;DHT22;53739;44.224;22.528;2023-04-24T06:17:01;358.70;2329.60
66831;DHT22;53739;44.224;22.528;2023-04-24T06:19:35;359.20;2329.60
66831;DHT22;53739;44.224;22.528;2023-04-24T06:22:21;359.20;2329.60
66831;DHT22;53739;44.224;22.528;2023-04-24T06:24:47;384.10;2329.60
66831;DHT22;53739;44.224;22.528;2023-04-24T06:27:42;384.50;2329.60
66831;DHT22;53739;44.224;22.528;2023-04-24T06:30:22;384.30;2329.60
66831;DHT22;53739;44.224;22.528;2023-04-24T06:38:31;384.50;2329.60
66831;DHT22;53739;44.224;22.528;2023-04-24T06:44:25;409.60;2355.20
66831;DHT22;53739;44.224;22.528;2023-04-24T08:19:55;409.70;128.00
66831;DHT22;53739;44.224;22.528;2023-04-24T08:52:56;384.70;2329.60
66831;DHT22;53739;44.224;22.528;2023-04-24T08:55:25;384.70;2329.60
66831;DHT22;53739;44.224;22.528;2023-04-24T08:57:57;384.70;2329.60
66831;DHT22;53739;44.224;22.528;2023-04-24T09:00:30;384.70;2329.60
66831;DHT22;53739;44.224;22.528;2023-04-24T09:09:46;384.60;2329.60
66831;DHT22;53739;44.224;22.528;2023-04-24T09:15:45;384.60;2329.60
66831;DHT22;53739;44.224;22.528;2023-04-24T09:43:47;384.80;2329.60
66831;DHT22;53739;44.224;22.528;2023-04-24T09:46:13;384.90;2329.60
66831;DHT22;53739;44.224;22.528;2023-04-24T09:48:39;384.90;2329.60
66831;DHT22;53739;44.224;22.528;2023-04-24T09:51:06;384.90;2329.60
66831;DHT22;53739;44.224;22.528;2023-04-24T09:53:38;384.80;2329.60
66831;DHT22;53739;44.224;22.528;2023-04-24T09:56:08;384.70;2329.60
66831;DHT22;53739;44.224;22.528;2023-04-24T09:58:36;384.70;2329.60
66831;DHT22;53739;44.224;22.528;2023-04-24T10:01:02;384.70;2329.60
66831;DHT22;53739;44.224;22.528;2023-04-24T10:03:32;384.80;2329.60
66831;DHT22;53739;44.224;22.528;2023-04-24T10:06:02;384.80;2329.60
66831;DHT22;53739;44.224;22.528;2023-04-24T10:08:34;384.80;2329.60
66831;DHT22;53739;44.224;22.528;2023-04-24T10:11:00;384.90;2329.60
66831;DHT22;53739;44.224;22.528;2023-04-24T10:13:28;409.70;2355.20
66831;DHT22;53739;44.224;22.528;2023-04-24T10:15:54;409.90;2355.20
66831;DHT22;53739;44.224;22.528;2023-04-24T10:18:21;410.00;2355.20
66831;DHT22;53739;44.224;22.528;2023-04-24T10:20:48;410.20;2355.20
66831;DHT22;53739;44.224;22.528;2023-04-24T10:23:14;410.40;2355.20
66831;DHT22;53739;44.224;22.528;2023-04-24T10:25:41;410.50;2355.20
66831;DHT22;53739;44.224;22.528;2023-04-24T10:28:10;435.20;2355.20
66831;DHT22;53739;44.224;22.528;2023-04-24T10:30:41;435.50;2355.20
66831;DHT22;53739;44.224;22.528;2023-04-24T10:33:20;435.80;2355.20
66831;DHT22;53739;44.224;22.528;2023-04-24T10:35:48;460.80;128.00
66831;DHT22;53739;44.224;22.528;2023-04-24T10:38:37;460.80;2380.80
66831;DHT22;53739;44.224;22.528;2023-04-24T10:41:11;460.80;128.00
66831;DHT22;53739;44.224;22.528;2023-04-24T10:56:32;461.50;128.00
66831;DHT22;53739;44.224;22.528;2023-04-24T10:59:01;461.40;128.00
66831;DHT22;53739;44.224;22.528;2023-04-24T11:01:30;461.40;2380.80
66831;DHT22;53739;44.224;22.528;2023-04-24T11:03:58;461.50;128.00
66831;DHT22;53739;44.224;22.528;2023-04-24T11:06:31;486.50;128.00
66831;DHT22;53739;44.224;22.528;2023-04-24T11:09:03;486.50;128.00
66831;DHT22;53739;44.224;22.528;2023-04-24T11:22:13;487.30;128.00
66831;DHT22;53739;44.224;22.528;2023-04-24T11:24:50;487.10;128.00
66831;DHT22;53739;44.224;22.528;2023-04-24T11:27:20;487.00;128.00
66831;DHT22;53739;44.224;22.528;2023-04-24T11:30:02;487.00;128.00
66831;DHT22;53739;44.224;22.528;2023-04-24T11:32:43;487.30;128.00
66831;DHT22;53739;44.224;22.528;2023-04-24T11:37:44;512.20;128.00
66831;DHT22;53739;44.224;22.528;2023-04-24T11:40:21;512.10;128.00
66831;DHT22;53739;44.224;22.528;2023-04-24T11:42:52;512.20;128.00
66831;DHT22;53739;44.224;22.528;2023-04-24T11:45:34;512.10;128.00
66831;DHT22;53739;44.224;22.528;2023-04-24T11:51:57;512.80;128.00
66831;DHT22;53739;44.224;22.528;2023-04-24T11:58:11;512.90;128.00
66831;DHT22;53739;44.224;22.528;2023-04-24T12:01:03;512.60;128.00
66831;DHT22;53739;44.224;22.528;2023-04-24T12:06:36;512.80;230.40
66831;DHT22;53739;44.224;22.528;2023-04-24T12:12:44;512.50;128.00
66831;DHT22;53739;44.224;22.528;2023-04-24T12:15:11;512.40;128.00
66831;DHT22;53739;44.224;22.528;2023-04-24T12:17:50;512.20;128.00
66831;DHT22;53739;44.224;22.528;2023-04-24T12:20:16;512.60;128.00
66831;DHT22;53739;44.224;22.528;2023-04-24T12:22:53;512.80;128.00
66831;DHT22;53739;44.224;22.528;2023-04-24T12:25:33;512.70;128.00
66831;DHT22;53739;44.224;22.528;2023-04-24T12:51:09;512.20;128.00
66831;DHT22;53739;44.224;22.528;2023-04-24T13:11:29;512.50;128.00
66831;DHT22;53739;44.224;22.528;2023-04-24T13:14:26;512.50;128.00
66831;DHT22;53739;44.224;22.528;2023-04-24T13:17:07;512.80;128.00
66831;DHT22;53739;44.224;22.528;2023-04-24T13:51:18;512.50;128.00
66831;DHT22;53739;44.224;22.528;2023-04-24T13:53:44;512.50;128.00
66831;DHT22;53739;44.224;22.528;2023-04-24T13:56:10;512.40;128.00
66831;DHT22;53739;44.224;22.528;2023-04-24T13:58:38;512.30;128.00
66831;DHT22;53739;44.224;22.528;2023-04-24T14:01:04;512.40;128.00
66831;DHT22;53739;44.224;22.528;2023-04-24T14:03:30;512.50;128.00
66831;DHT22;53739;44.224;22.528;2023-04-24T14:05:56;512.00;128.00
66831;DHT22;53739;44.224;22.528;2023-04-24T14:08:22;512.20;128.00
66831;DHT22;53739;44.224;22.528;2023-04-24T14:10:47;512.20;128.00
66831;DHT22;53739;44.224;22.528;2023-04-24T14:13:13;512.20;128.00
66831;DHT22;53739;44.224;22.528;2023-04-24T14:15:39;512.20;128.00
66831;DHT22;53739;44.224;22.528;2023-04-24T14:18:08;512.30;128.00
66831;DHT22;53739;44.224;22.528;2023-04-24T14:20:35;512.40;128.00
66831;DHT22;53739;44.224;22.528;2023-04-24T14:23:00;512.20;128.00
66831;DHT22;53739;44.224;22.528;2023-04-24T14:25:26;512.10;128.00
66831;DHT22;53739;44.224;22.528;2023-04-24T14:27:52;512.00;128.00
66831;DHT22;53739;44.224;22.528;2023-04-24T14:30:19;512.10;128.00
66831;DHT22;53739;44.224;22.528;2023-04-24T14:32:44;512.00;128.00
66831;DHT22;53739;44.224;22.528;2023-04-24T14:35:10;487.30;128.00
66831;DHT22;53739;44.224;22.528;2023-04-24T14:37:36;487.30;128.00
66831;DHT22;53739;44.224;22.528;2023-04-24T14:40:03;487.30;128.00
66831;DHT22;53739;44.224;22.528;2023-04-24T14:42:33;487.20;128.00
66831;DHT22;53739;44.224;22.528;2023-04-24T14:44:59;487.10;128.00
66831;DHT22;53739;44.224;22.528;2023-04-24T14:47:43;487.00;128.00
66831;DHT22;53739;44.224;22.528;2023-04-24T14:50:11;486.90;128.00
66831;DHT22;53739;44.224;22.528;2023-04-24T14:52:38;486.70;128.00
66831;DHT22;53739;44.224;22.528;2023-04-24T14:55:04;486.60;128.00
66831;DHT22;53739;44.224;22.528;2023-04-24T14:57:33;486.50;128.00
66831;DHT22;53739;44.224;22.528;2023-04-24T14:59:58;461.60;128.00
66831;DHT22;53739;44.224;22.528;2023-04-24T15:02:33;461.50;128.00
66831;DHT22;53739;44.224;22.528;2023-04-24T15:04:58;461.30;2380.80
66831;DHT22;53739;44.224;22.528;2023-04-24T15:07:24;461.10;2380.80
66831;DHT22;53739;44.224;22.528;2023-04-24T15:09:50;461.00;2380.80
66831;DHT22;53739;44.224;22.528;2023-04-24T15:12:16;460.90;2380.80
66831;DHT22;53739;44.224;22.528;2023-04-24T15:14:42;460.90;2380.80
66831;DHT22;53739;44.224;22.528;2023-04-24T15:17:08;460.90;2380.80
66831;DHT22;53739;44.224;22.528;2023-04-24T15:19:34;460.80;2380.80
66831;DHT22;53739;44.224;22.528;2023-04-24T15:21:59;460.80;2380.80
66831;DHT22;53739;44.224;22.528;2023-04-24T15:24:25;436.10;2355.20
66831;DHT22;53739;44.224;22.528;2023-04-24T15:26:51;436.10;2355.20
66831;DHT22;53739;44.224;22.528;2023-04-24T15:29:17;435.90;2355.20
66831;DHT22;53739;44.224;22.528;2023-04-24T15:31:44;435.80;2355.20
66831;DHT22;53739;44.224;22.528;2023-04-24T15:34:10;435.70;2355.20
66831;DHT22;53739;44.224;22.528;2023-04-24T15:36:35;435.60;2355.20
66831;DHT22;53739;44.224;22.528;2023-04-24T15:39:02;435.30;2355.20
66831;DHT22;53739;44.224;22.528;2023-04-24T15:41:28;435.20;2355.20
66831;DHT22;53739;44.224;22.528;2023-04-24T15:43:54;410.40;2355.20
66831;DHT22;53739;44.224;22.528;2023-04-24T15:46:20;410.20;2355.20
66831;DHT22;53739;44.224;22.528;2023-04-24T15:48:45;410.00;2355.20
66831;DHT22;53739;44.224;22.528;2023-04-24T15:51:12;409.90;2355.20
66831;DHT22;53739;44.224;22.528;2023-04-24T15:53:43;409.80;2355.20
66831;DHT22;53739;44.224;22.528;2023-04-24T15:56:53;409.90;2355.20
66831;DHT22;53739;44.224;22.528;2023-04-24T16:02:41;409.90;2355.20
66831;DHT22;53739;44.224;22.528;2023-04-24T16:05:10;410.00;2355.20
66831;DHT22;53739;44.224;22.528;2023-04-24T16:07:38;410.10;2355.20
66831;DHT22;53739;44.224;22.528;2023-04-24T16:10:05;410.10;2355.20
66831;DHT22;53739;44.224;22.528;2023-04-24T16:12:31;410.20;2355.20
66831;DHT22;53739;44.224;22.528;2023-04-24T16:14:57;410.20;2355.20
66831;DHT22;53739;44.224;22.528;2023-04-24T16:17:23;410.20;2355.20
66831;DHT22;53739;44.224;22.528;2023-04-24T16:19:49;410.20;2355.20
66831;DHT22;53739;44.224;22.528;2023-04-24T16:22:15;410.20;2355.20
66831;DHT22;53739;44.224;22.528;2023-04-24T16:24:40;410.20;2355.20
66831;DHT22;53739;44.224;22.528;2023-04-24T16:27:08;410.00;2355.20
66831;DHT22;53739;44.224;22.528;2023-04-24T16:29:34;409.90;2355.20
66831;DHT22;53739;44.224;22.528;2023-04-24T16:31:59;409.70;2355.20
66831;DHT22;53739;44.224;22.528;2023-04-24T16:34:25;409.70;2355.20
66831;DHT22;53739;44.224;22.528;2023-04-24T16:36:51;409.70;2355.20
66831;DHT22;53739;44.224;22.528;2023-04-24T16:39:17;409.80;2355.20
66831;DHT22;53739;44.224;22.528;2023-04-24T16:41:42;409.70;2355.20
66831;DHT22;53739;44.224;22.528;2023-04-24T16:44:09;384.70;2329.60
66831;DHT22;53739;44.224;22.528;2023-04-24T16:46:35;384.70;2329.60
66831;DHT22;53739;44.224;22.528;2023-04-24T16:49:01;384.70;2329.60
66831;DHT22;53739;44.224;22.528;2023-04-24T16:51:27;384.70;2329.60
66831;DHT22;53739;44.224;22.528;2023-04-24T16:53:53;384.90;2329.60
66831;DHT22;53739;44.224;22.528;2023-04-24T16:56:20;409.60;2355.20
66831;DHT22;53739;44.224;22.528;2023-04-24T16:58:45;409.60;2355.20
66831;DHT22;53739;44.224;22.528;2023-04-24T17:01:11;409.70;2355.20
66831;DHT22;53739;44.224;22.528;2023-04-24T17:03:37;409.70;2355.20
66831;DHT22;53739;44.224;22.528;2023-04-24T17:06:03;409.70;2355.20
66831;DHT22;53739;44.224;22.528;2023-04-24T17:08:29;409.70;2355.20
66831;DHT22;53739;44.224;22.528;2023-04-24T17:10:57;409.70;2355.20
66831;DHT22;53739;44.224;22.528;2023-04-24T17:13:23;409.70;2355.20
66831;DHT22;53739;44.224;22.528;2023-04-24T17:15:48;409.70;2355.20
66831;DHT22;53739;44.224;22.528;2023-04-24T17:18:14;409.60;2355.20
66831;DHT22;53739;44.224;22.528;2023-04-24T17:20:42;384.90;2329.60
66831;DHT22;53739;44.224;22.528;2023-04-24T17:23:08;384.80;2329.60
66831;DHT22;53739;44.224;22.528;2023-04-24T17:25:36;384.70;2329.60
66831;DHT22;53739;44.224;22.528;2023-04-24T17:28:02;384.70;2329.60
66831;DHT22;53739;44.224;22.528;2023-04-24T17:30:28;384.70;2329.60
66831;DHT22;53739;44.224;22.528;2023-04-24T17:32:54;384.60;2329.60
66831;DHT22;53739;44.224;22.528;2023-04-24T17:35:20;384.70;2329.60
66831;DHT22;53739;44.224;22.528;2023-04-24T17:37:46;384.70;2329.60
66831;DHT22;53739;44.224;22.528;2023-04-24T17:40:12;384.70;2329.60
66831;DHT22;53739;44.224;22.528;2023-04-24T17:42:38;384.60;2329.60
66831;DHT22;53739;44.224;22.528;2023-04-24T17:45:08;384.50;2329.60
66831;DHT22;53739;44.224;22.528;2023-04-24T17:47:34;384.20;2329.60
66831;DHT22;53739;44.224;22.528;2023-04-24T17:50:03;384.20;2329.60
66831;DHT22;53739;44.224;22.528;2023-04-24T17:52:32;384.10;2329.60
66831;DHT22;53739;44.224;22.528;2023-04-24T17:54:58;384.20;2329.60
66831;DHT22;53739;44.224;22.528;2023-04-24T17:57:24;384.10;2329.60
66831;DHT22;53739;44.224;22.528;2023-04-24T17:59:50;384.00;2329.60
66831;DHT22;53739;44.224;22.528;2023-04-24T18:02:16;384.00;2329.60
66831;DHT22;53739;44.224;22.528;2023-04-24T18:04:41;359.30;2329.60
66831;DHT22;53739;44.224;22.528;2023-04-24T18:07:07;384.00;2329.60
66831;DHT22;53739;44.224;22.528;2023-04-24T18:09:33;384.00;2329.60
66831;DHT22;53739;44.224;22.528;2023-04-24T18:11:59;384.00;2329.60
66831;DHT22;53739;44.224;22.528;2023-04-24T18:14:26;359.20;2329.60
66831;DHT22;53739;44.224;22.528;2023-04-24T18:16:53;359.30;2329.60
66831;DHT22;53739;44.224;22.528;2023-04-24T18:19:18;359.00;2329.60
66831;DHT22;53739;44.224;22.528;2023-04-24T18:21:44;358.90;2329.60
66831;DHT22;53739;44.224;22.528;2023-04-24T18:24:10;358.80;2329.60
66831;DHT22;53739;44.224;22.528;2023-04-24T18:26:36;358.80;2329.60
66831;DHT22;53739;44.224;22.528;2023-04-24T18:29:02;358.90;2329.60
66831;DHT22;53739;44.224;22.528;2023-04-24T18:31:27;358.80;2329.60
66831;DHT22;53739;44.224;22.528;2023-04-24T18:33:53;358.90;2329.60
66831;DHT22;53739;44.224;22.528;2023-04-24T18:36:20;358.80;2329.60
66831;DHT22;53739;44.224;22.528;2023-04-24T18:38:46;358.80;2329.60
66831;DHT22;53739;44.224;22.528;2023-04-24T18:41:12;358.80;2329.60
66831;DHT22;53739;44.224;22.528;2023-04-24T18:43:38;358.80;2329.60
66831;DHT22;53739;44.224;22.528;2023-04-24T18:46:04;358.80;2329.60
66831;DHT22;53739;44.224;22.528;2023-04-24T18:48:30;358.90;2329.60
66831;DHT22;53739;44.224;22.528;2023-04-24T18:50:56;358.90;2329.60
66831;DHT22;53739;44.224;22.528;2023-04-24T18:53:23;358.80;2329.60
66831;DHT22;53739;44.224;22.528;2023-04-24T18:55:48;358.90;2329.60
66831;DHT22;53739;44.224;22.528;2023-04-24T18:58:14;359.00;2329.60
66831;DHT22;53739;44.224;22.528;2023-04-24T19:00:40;359.00;2329.60
66831;DHT22;53739;44.224;22.528;2023-04-24T19:03:06;359.00;2329.60
66831;DHT22;53739;44.224;22.528;2023-04-24T19:05:33;359.10;2329.60
66831;DHT22;53739;44.224;22.528;2023-04-24T19:07:59;359.10;2329.60
66831;DHT22;53739;44.224;22.528;2023-04-24T19:10:24;359.10;2329.60
66831;DHT22;53739;44.224;22.528;2023-04-24T19:12:52;359.10;2329.60
66831;DHT22;53739;44.224;22.528;2023-04-24T19:15:23;359.00;2329.60
66831;DHT22;53739;44.224;22.528;2023-04-24T19:17:48;359.00;2329.60
66831;DHT22;53739;44.224;22.528;2023-04-24T19:20:19;359.00;2329.60
66831;DHT22;53739;44.224;22.528;2023-04-24T19:22:45;359.00;2329.60
66831;DHT22;53739;44.224;22.528;2023-04-24T19:25:12;359.10;2329.60
66831;DHT22;53739;44.224;22.528;2023-04-24T19:27:38;359.10;2329.60
66831;DHT22;53739;44.224;22.528;2023-04-24T19:30:05;359.20;2329.60
66831;DHT22;53739;44.224;22.528;2023-04-24T19:32:31;359.20;2329.60
66831;DHT22;53739;44.224;22.528;2023-04-24T19:34:57;359.20;2329.60
66831;DHT22;53739;44.224;22.528;2023-04-24T19:37:22;359.30;2329.60
66831;DHT22;53739;44.224;22.528;2023-04-24T19:39:48;359.20;2329.60
66831;DHT22;53739;44.224;22.528;2023-04-24T19:42:14;359.20;2329.60
66831;DHT22;53739;44.224;22.528;2023-04-24T19:44:40;359.20;2329.60
66831;DHT22;53739;44.224;22.528;2023-04-24T19:47:06;359.20;2329.60
66831;DHT22;53739;44.224;22.528;2023-04-24T19:49:32;359.10;2329.60
66831;DHT22;53739;44.224;22.528;2023-04-24T19:51:58;359.10;2329.60
66831;DHT22;53739;44.224;22.528;2023-04-24T19:54:26;359.00;2329.60
66831;DHT22;53739;44.224;22.528;2023-04-24T19:56:52;358.80;2329.60
66831;DHT22;53739;44.224;22.528;2023-04-24T19:59:18;358.70;2329.60
66831;DHT22;53739;44.224;22.528;2023-04-24T20:01:43;358.80;2329.60
66831;DHT22;53739;44.224;22.528;2023-04-24T20:04:09;358.90;2329.60
66831;DHT22;53739;44.224;22.528;2023-04-24T20:06:38;358.90;2329.60
66831;DHT22;53739;44.224;22.528;2023-04-24T20:09:04;359.00;2329.60
66831;DHT22;53739;44.224;22.528;2023-04-24T20:11:33;359.00;2329.60
66831;DHT22;53739;44.224;22.528;2023-04-24T20:13:59;359.00;2329.60
66831;DHT22;53739;44.224;22.528;2023-04-24T20:16:26;359.10;2329.60
66831;DHT22;53739;44.224;22.528;2023-04-24T20:18:52;359.10;2329.60
66831;DHT22;53739;44.224;22.528;2023-04-24T20:21:18;359.20;2329.60
66831;DHT22;53739;44.224;22.528;2023-04-24T20:23:44;359.10;2329.60
66831;DHT22;53739;44.224;22.528;2023-04-24T20:26:09;359.20;2329.60
66831;DHT22;53739;44.224;22.528;2023-04-24T20:28:36;359.10;2329.60
66831;DHT22;53739;44.224;22.528;2023-04-24T20:31:02;359.20;2329.60
66831;DHT22;53739;44.224;22.528;2023-04-24T20:33:28;359.20;2329.60
66831;DHT22;53739;44.224;22.528;2023-04-24T20:35:55;359.10;2329.60
66831;DHT22;53739;44.224;22.528;2023-04-24T20:38:21;359.00;2329.60
66831;DHT22;53739;44.224;22.528;2023-04-24T20:40:47;359.00;2329.60
66831;DHT22;53739;44.224;22.528;2023-04-24T20:43:14;359.00;2329.60
66831;DHT22;53739;44.224;22.528;2023-04-24T20:45:40;359.00;2329.60
66831;DHT22;53739;44.224;22.528;2023-04-24T20:48:06;358.90;2329.60
66831;DHT22;53739;44.224;22.528;2023-04-24T20:50:34;359.00;2329.60
66831;DHT22;53739;44.224;22.528;2023-04-24T20:53:04;359.00;2329.60
66831;DHT22;53739;44.224;22.528;2023-04-24T20:55:30;359.00;2329.60
66831;DHT22;53739;44.224;22.528;2023-04-24T20:57:56;359.00;2329.60
66831;DHT22;53739;44.224;22.528;2023-04-24T21:00:25;359.00;2329.60
66831;DHT22;53739;44.224;22.528;2023-04-24T21:02:51;358.90;2329.60
66831;DHT22;53739;44.224;22.528;2023-04-24T21:05:16;358.90;2329.60
66831;DHT22;53739;44.224;22.528;2023-04-24T21:07:42;359.00;2329.60
66831;DHT22;53739;44.224;22.528;2023-04-24T21:10:09;359.00;2329.60
66831;DHT22;53739;44.224;22.528;2023-04-24T21:12:34;358.90;2329.60
66831;DHT22;53739;44.224;22.528;2023-04-24T21:15:00;358.80;2329.60
66831;DHT22;53739;44.224;22.528;2023-04-24T21:17:26;358.80;2329.60
66831;DHT22;53739;44.224;22.528;2023-04-24T21:19:52;358.70;2329.60
66831;DHT22;53739;44.224;22.528;2023-04-24T21:22:18;358.80;2329.60
66831;DHT22;53739;44.224;22.528;2023-04-24T21:24:43;358.80;2329.60
66831;DHT22;53739;44.224;22.528;2023-04-24T21:27:09;358.80;2329.60
66831;DHT22;53739;44.224;22.528;2023-04-24T21:29:35;358.80;2329.60
66831;DHT22;53739;44.224;22.528;2023-04-24T21:32:02;358.90;2329.60
66831;DHT22;53739;44.224;22.528;2023-04-24T21:34:27;358.80;2329.60
66831;DHT22;53739;44.224;22.528;2023-04-24T21:36:53;358.80;2329.60
66831;DHT22;53739;44.224;22.528;2023-04-24T21:39:19;358.90;2329.60
66831;DHT22;53739;44.224;22.528;2023-04-24T21:41:45;359.00;2329.60
66831;DHT22;53739;44.224;22.528;2023-04-24T21:44:12;359.00;2329.60
66831;DHT22;53739;44.224;22.528;2023-04-24T21:46:37;359.00;2329.60
66831;DHT22;53739;44.224;22.528;2023-04-24T21:49:04;359.00;2329.60
66831;DHT22;53739;44.224;22.528;2023-04-24T21:58:10;358.90;2329.60
66831;DHT22;53739;44.224;22.528;2023-04-24T22:00:37;358.70;2329.60
66831;DHT22;53739;44.224;22.528;2023-04-24T22:03:05;358.60;2329.60
66831;DHT22;53739;44.224;22.528;2023-04-24T22:05:31;358.60;2329.60
66831;DHT22;53739;44.224;22.528;2023-04-24T22:07:57;358.60;2329.60
66831;DHT22;53739;44.224;22.528;2023-04-24T22:10:24;358.60;2329.60
66831;DHT22;53739;44.224;22.528;2023-04-24T22:12:50;358.70;2329.60
66831;DHT22;53739;44.224;22.528;2023-04-24T22:15:16;358.80;2329.60
66831;DHT22;53739;44.224;22.528;2023-04-24T22:17:41;358.80;2329.60
66831;DHT22;53739;44.224;22.528;2023-04-24T22:20:08;358.90;2329.60
66831;DHT22;53739;44.224;22.528;2023-04-24T22:22:34;359.00;2329.60
66831;DHT22;53739;44.224;22.528;2023-04-24T22:25:00;358.90;2329.60
66831;DHT22;53739;44.224;22.528;2023-04-24T22:27:26;358.90;2329.60
66831;DHT22;53739;44.224;22.528;2023-04-24T22:29:52;358.80;2329.60
66831;DHT22;53739;44.224;22.528;2023-04-24T22:32:18;358.70;2329.60
66831;DHT22;53739;44.224;22.528;2023-04-24T22:34:44;358.70;2329.60
66831;DHT22;53739;44.224;22.528;2023-04-24T22:37:10;358.60;2329.60
66831;DHT22;53739;44.224;22.528;2023-04-24T22:39:36;358.60;2329.60
66831;DHT22;53739;44.224;22.528;2023-04-24T22:42:01;358.70;2329.60
66831;DHT22;53739;44.224;22.528;2023-04-24T22:44:28;358.70;2329.60
66831;DHT22;53739;44.224;22.528;2023-04-24T22:46:54;358.70;2329.60
66831;DHT22;53739;44.224;22.528;2023-04-24T22:49:20;358.60;2329.60
66831;DHT22;53739;44.224;22.528;2023-04-24T22:51:46;358.70;2329.60
66831;DHT22;53739;44.224;22.528;2023-04-24T22:54:12;358.60;2329.60
66831;DHT22;53739;44.224;22.528;2023-04-24T22:56:38;358.60;2329.60
66831;DHT22;53739;44.224;22.528;2023-04-24T22:59:04;358.60;2329.60
66831;DHT22;53739;44.224;22.528;2023-04-24T23:01:31;358.60;2329.60
66831;DHT22;53739;44.224;22.528;2023-04-24T23:03:57;358.60;2329.60
66831;DHT22;53739;44.224;22.528;2023-04-24T23:06:23;358.60;2329.60
66831;DHT22;53739;44.224;22.528;2023-04-24T23:08:49;358.50;2329.60
66831;DHT22;53739;44.224;22.528;2023-04-24T23:11:15;358.60;2329.60
66831;DHT22;53739;44.224;22.528;2023-04-24T23:13:41;358.60;2329.60
66831;DHT22;53739;44.224;22.528;2023-04-24T23:16:07;358.70;2329.60
66831;DHT22;53739;44.224;22.528;2023-04-24T23:18:32;358.40;2329.60
66831;DHT22;53739;44.224;22.528;2023-04-24T23:20:58;333.70;2329.60
66831;DHT22;53739;44.224;22.528;2023-04-24T23:23:26;333.70;2329.60
66831;DHT22;53739;44.224;22.528;2023-04-24T23:25:52;333.70;2329.60
66831;DHT22;53739;44.224;22.528;2023-04-24T23:28:18;333.70;2329.60
66831;DHT22;53739;44.224;22.528;2023-04-24T23:30:44;333.60;2329.60
66831;DHT22;53739;44.224;22.528;2023-04-24T23:33:10;333.60;2329.60
66831;DHT22;53739;44.224;22.528;2023-04-24T23:35:36;333.70;2329.60
66831;DHT22;53739;44.224;22.528;2023-04-24T23:38:02;358.50;2329.60
66831;DHT22;53739;44.224;22.528;2023-04-24T23:40:28;358.50;2329.60
66831;DHT22;53739;44.224;22.528;2023-04-24T23:42:54;358.60;2329.60
66831;DHT22;53739;44.224;22.528;2023-04-24T23:45:19;358.50;2329.60
66831;DHT22;53739;44.224;22.528;2023-04-24T23:47:45;358.60;2329.60
66831;DHT22;53739;44.224;22.528;2023-04-24T23:50:12;358.60;2329.60
66831;DHT22;53739;44.224;22.528;2023-04-24T23:52:37;358.60;2329.60
66831;DHT22;53739;44.224;22.528;2023-04-24T23:55:03;358.60;2329.60
66831;DHT22;53739;44.224;22.528;2023-04-24T23:57:30;358.70;2329.60
66831;DHT22;53739;44.224;22.528;2023-04-24T23:59:56;358.70;2329.60
